sensor_id;sensor_type;location;lat;lon;timestamp;temperature;humidity
52113;DHT22;38109;49.488;31.988;2022-09-29T02:15:12;11.90;88.40
52113;DHT22;38109;49.488;31.988;2022-09-29T02:17:43;11.80;88.50
52113;DHT22;38109;49.488;31.988;2022-09-29T02:20:11;11.80;88.50
52113;DHT22;38109;49.488;31.988;2022-09-29T02:22:37;11.80;88.50
52113;DHT22;38109;49.488;31.988;2022-09-29T02:25:04;11.80;88.50
52113;DHT22;38109;49.488;31.988;2022-09-29T02:27:33;11.80;88.60
52113;DHT22;38109;49.488;31.988;2022-09-29T02:29:59;11.70;88.70
52113;DHT22;38109;49.488;31.988;2022-09-29T02:32:25;11.70;88.70
52113;DHT22;38109;49.488;31.988;2022-09-29T02:34:53;11.70;88.80
52113;DHT22;38109;49.488;31.988;2022-09-29T02:40:20;11.70;88.90
52113;DHT22;38109;49.488;31.988;2022-09-29T02:46:02;11.70;88.40
52113;DHT22;38109;49.488;31.988;2022-09-29T02:57:14;11.50;88.20
52113;DHT22;38109;49.488;31.988;2022-09-29T02:59:51;11.50;88.10
52113;DHT22;38109;49.488;31.988;2022-09-29T03:02:26;11.50;88.20
52113;DHT22;38109;49.488;31.988;2022-09-29T03:04:53;11.50;88.40
52113;DHT22;38109;49.488;31.988;2022-09-29T03:07:20;11.40;88.50
52113;DHT22;38109;49.488;31.988;2022-09-29T03:09:45;11.40;88.50
52113;DHT22;38109;49.488;31.988;2022-09-29T03:12:12;11.40;88.60
52113;DHT22;38109;49.488;31.988;2022-09-29T03:14:38;11.40;88.70
52113;DHT22;38109;49.488;31.988;2022-09-29T03:17:03;11.40;88.70
52113;DHT22;38109;49.488;31.988;2022-09-29T03:19:29;11.40;88.70
52113;DHT22;38109;49.488;31.988;2022-09-29T03:21:55;11.40;88.80
52113;DHT22;38109;49.488;31.988;2022-09-29T03:24:21;11.40;88.80
52113;DHT22;38109;49.488;31.988;2022-09-29T03:26:47;11.40;88.80
52113;DHT22;38109;49.488;31.988;2022-09-29T03:29:13;11.40;88.80
52113;DHT22;38109;49.488;31.988;2022-09-29T03:31:39;11.40;88.70
52113;DHT22;38109;49.488;31.988;2022-09-29T03:34:05;11.40;88.60
52113;DHT22;38109;49.488;31.988;2022-09-29T03:36:31;11.40;88.60
52113;DHT22;38109;49.488;31.988;2022-09-29T03:38:58;11.40;88.50
52113;DHT22;38109;49.488;31.988;2022-09-29T03:41:24;11.40;88.50
52113;DHT22;38109;49.488;31.988;2022-09-29T03:43:50;11.30;88.50
52113;DHT22;38109;49.488;31.988;2022-09-29T03:46:16;11.30;88.60
52113;DHT22;38109;49.488;31.988;2022-09-29T03:48:43;11.30;88.60
52113;DHT22;38109;49.488;31.988;2022-09-29T03:51:09;11.30;88.50
52113;DHT22;38109;49.488;31.988;2022-09-29T03:53:35;11.30;88.40
52113;DHT22;38109;49.488;31.988;2022-09-29T03:56:02;11.30;88.40
52113;DHT22;38109;49.488;31.988;2022-09-29T03:58:28;11.20;88.30
52113;DHT22;38109;49.488;31.988;2022-09-29T04:00:54;11.30;88.30
52113;DHT22;38109;49.488;31.988;2022-09-29T04:03:20;11.20;88.40
52113;DHT22;38109;49.488;31.988;2022-09-29T04:05:47;11.20;88.40
52113;DHT22;38109;49.488;31.988;2022-09-29T04:08:14;11.20;88.60
52113;DHT22;38109;49.488;31.988;2022-09-29T04:10:40;11.20;88.70
52113;DHT22;38109;49.488;31.988;2022-09-29T04:13:07;11.20;88.80
52113;DHT22;38109;49.488;31.988;2022-09-29T04:15:33;11.20;88.80
52113;DHT22;38109;49.488;31.988;2022-09-29T04:18:00;11.20;88.80
52113;DHT22;38109;49.488;31.988;2022-09-29T04:20:26;11.20;88.80
52113;DHT22;38109;49.488;31.988;2022-09-29T04:22:52;11.20;88.90
52113;DHT22;38109;49.488;31.988;2022-09-29T04:25:18;11.20;89.00
52113;DHT22;38109;49.488;31.988;2022-09-29T04:27:44;11.10;89.10
52113;DHT22;38109;49.488;31.988;2022-09-29T04:30:10;11.20;89.30
52113;DHT22;38109;49.488;31.988;2022-09-29T04:32:36;11.20;89.30
52113;DHT22;38109;49.488;31.988;2022-09-29T04:35:02;11.20;89.40
52113;DHT22;38109;49.488;31.988;2022-09-29T04:37:28;11.30;89.50
52113;DHT22;38109;49.488;31.988;2022-09-29T04:39:55;11.30;89.70
52113;DHT22;38109;49.488;31.988;2022-09-29T04:42:21;11.30;89.70
52113;DHT22;38109;49.488;31.988;2022-09-29T04:44:49;11.40;89.90
52113;DHT22;38109;49.488;31.988;2022-09-29T04:47:17;11.40;89.90
52113;DHT22;38109;49.488;31.988;2022-09-29T04:49:42;11.50;90.00
52113;DHT22;38109;49.488;31.988;2022-09-29T04:52:11;11.50;90.00
52113;DHT22;38109;49.488;31.988;2022-09-29T04:54:37;11.60;90.10
52113;DHT22;38109;49.488;31.988;2022-09-29T04:57:03;11.60;90.10
52113;DHT22;38109;49.488;31.988;2022-09-29T04:59:29;11.70;90.20
52113;DHT22;38109;49.488;31.988;2022-09-29T05:01:54;11.80;90.30
52113;DHT22;38109;49.488;31.988;2022-09-29T05:04:20;11.90;90.30
52113;DHT22;38109;49.488;31.988;2022-09-29T05:06:46;11.90;90.30
52113;DHT22;38109;49.488;31.988;2022-09-29T05:09:12;12.00;90.40
52113;DHT22;38109;49.488;31.988;2022-09-29T05:11:38;12.10;90.40
52113;DHT22;38109;49.488;31.988;2022-09-29T05:14:03;12.10;90.40
52113;DHT22;38109;49.488;31.988;2022-09-29T05:16:29;12.20;90.50
52113;DHT22;38109;49.488;31.988;2022-09-29T05:18:55;12.30;90.50
52113;DHT22;38109;49.488;31.988;2022-09-29T05:21:21;12.40;90.50
52113;DHT22;38109;49.488;31.988;2022-09-29T05:23:47;12.50;90.60
52113;DHT22;38109;49.488;31.988;2022-09-29T05:26:13;12.50;90.60
52113;DHT22;38109;49.488;31.988;2022-09-29T05:28:43;12.60;90.60
52113;DHT22;38109;49.488;31.988;2022-09-29T05:31:10;12.70;90.60
52113;DHT22;38109;49.488;31.988;2022-09-29T05:33:36;12.80;90.60
52113;DHT22;38109;49.488;31.988;2022-09-29T05:36:07;12.90;90.60
52113;DHT22;38109;49.488;31.988;2022-09-29T05:38:36;13.00;90.50
52113;DHT22;38109;49.488;31.988;2022-09-29T05:41:07;13.10;90.50
52113;DHT22;38109;49.488;31.988;2022-09-29T05:43:33;13.20;90.50
52113;DHT22;38109;49.488;31.988;2022-09-29T05:46:03;13.20;90.30
52113;DHT22;38109;49.488;31.988;2022-09-29T05:48:29;13.30;90.20
52113;DHT22;38109;49.488;31.988;2022-09-29T05:50:58;13.40;90.00
52113;DHT22;38109;49.488;31.988;2022-09-29T05:53:25;13.40;90.00
52113;DHT22;38109;49.488;31.988;2022-09-29T05:55:51;13.50;90.00
52113;DHT22;38109;49.488;31.988;2022-09-29T05:58:17;13.50;89.80
52113;DHT22;38109;49.488;31.988;2022-09-29T06:00:43;13.60;89.80
52113;DHT22;38109;49.488;31.988;2022-09-29T06:03:08;13.60;89.80
52113;DHT22;38109;49.488;31.988;2022-09-29T06:05:37;13.70;89.70
52113;DHT22;38109;49.488;31.988;2022-09-29T06:08:04;13.80;89.60
52113;DHT22;38109;49.488;31.988;2022-09-29T06:10:30;13.90;89.20
52113;DHT22;38109;49.488;31.988;2022-09-29T06:12:55;13.90;88.90
52113;DHT22;38109;49.488;31.988;2022-09-29T06:15:22;14.00;88.70
52113;DHT22;38109;49.488;31.988;2022-09-29T06:17:57;14.00;88.50
52113;DHT22;38109;49.488;31.988;2022-09-29T06:20:23;14.10;88.20
52113;DHT22;38109;49.488;31.988;2022-09-29T06:22:49;14.10;88.00
52113;DHT22;38109;49.488;31.988;2022-09-29T06:25:16;14.10;88.10
52113;DHT22;38109;49.488;31.988;2022-09-29T06:27:41;14.10;87.10
52113;DHT22;38109;49.488;31.988;2022-09-29T06:30:08;14.20;87.20
52113;DHT22;38109;49.488;31.988;2022-09-29T06:32:33;14.20;87.10
52113;DHT22;38109;49.488;31.988;2022-09-29T06:35:00;14.20;87.00
52113;DHT22;38109;49.488;31.988;2022-09-29T06:37:44;14.30;86.90
52113;DHT22;38109;49.488;31.988;2022-09-29T06:40:12;14.30;86.80
52113;DHT22;38109;49.488;31.988;2022-09-29T06:42:38;14.30;86.70
52113;DHT22;38109;49.488;31.988;2022-09-29T06:45:04;14.40;86.80
52113;DHT22;38109;49.488;31.988;2022-09-29T06:47:29;14.40;86.80
52113;DHT22;38109;49.488;31.988;2022-09-29T06:49:55;14.40;86.70
52113;DHT22;38109;49.488;31.988;2022-09-29T06:52:22;14.50;86.70
52113;DHT22;38109;49.488;31.988;2022-09-29T06:54:48;14.50;86.50
52113;DHT22;38109;49.488;31.988;2022-09-29T06:57:14;14.50;86.30
52113;DHT22;38109;49.488;31.988;2022-09-29T06:59:39;14.50;86.40
52113;DHT22;38109;49.488;31.988;2022-09-29T07:02:05;14.60;86.10
52113;DHT22;38109;49.488;31.988;2022-09-29T07:04:31;14.60;86.00
52113;DHT22;38109;49.488;31.988;2022-09-29T07:06:57;14.60;86.00
52113;DHT22;38109;49.488;31.988;2022-09-29T07:09:22;14.70;85.70
52113;DHT22;38109;49.488;31.988;2022-09-29T07:11:50;14.70;85.70
52113;DHT22;38109;49.488;31.988;2022-09-29T07:14:21;14.70;85.70
52113;DHT22;38109;49.488;31.988;2022-09-29T07:16:50;14.70;85.80
52113;DHT22;38109;49.488;31.988;2022-09-29T07:19:17;14.80;86.00
52113;DHT22;38109;49.488;31.988;2022-09-29T07:21:43;14.80;86.10
52113;DHT22;38109;49.488;31.988;2022-09-29T07:24:09;14.90;86.20
52113;DHT22;38109;49.488;31.988;2022-09-29T07:26:35;15.00;86.20
52113;DHT22;38109;49.488;31.988;2022-09-29T07:29:01;15.00;86.20
52113;DHT22;38109;49.488;31.988;2022-09-29T07:31:27;15.10;86.20
52113;DHT22;38109;49.488;31.988;2022-09-29T07:33:53;15.10;86.30
52113;DHT22;38109;49.488;31.988;2022-09-29T07:36:20;15.20;86.20
52113;DHT22;38109;49.488;31.988;2022-09-29T07:38:48;15.20;86.00
52113;DHT22;38109;49.488;31.988;2022-09-29T07:41:14;15.20;86.10
52113;DHT22;38109;49.488;31.988;2022-09-29T07:43:40;15.30;86.20
52113;DHT22;38109;49.488;31.988;2022-09-29T07:46:07;15.40;86.20
52113;DHT22;38109;49.488;31.988;2022-09-29T07:48:34;15.40;86.30
52113;DHT22;38109;49.488;31.988;2022-09-29T07:51:06;15.50;86.30
52113;DHT22;38109;49.488;31.988;2022-09-29T07:53:33;15.60;86.20
52113;DHT22;38109;49.488;31.988;2022-09-29T07:56:25;15.60;86.00
52113;DHT22;38109;49.488;31.988;2022-09-29T07:58:50;15.70;86.40
52113;DHT22;38109;49.488;31.988;2022-09-29T08:01:17;15.80;85.70
52113;DHT22;38109;49.488;31.988;2022-09-29T08:03:52;15.80;85.50
52113;DHT22;38109;49.488;31.988;2022-09-29T08:06:19;15.90;85.10
52113;DHT22;38109;49.488;31.988;2022-09-29T08:08:46;16.00;85.20
52113;DHT22;38109;49.488;31.988;2022-09-29T08:11:14;16.00;85.00
52113;DHT22;38109;49.488;31.988;2022-09-29T08:13:41;16.10;84.90
52113;DHT22;38109;49.488;31.988;2022-09-29T08:16:10;16.10;84.80
52113;DHT22;38109;49.488;31.988;2022-09-29T08:18:36;16.20;84.60
52113;DHT22;38109;49.488;31.988;2022-09-29T08:21:02;16.20;84.60
52113;DHT22;38109;49.488;31.988;2022-09-29T08:23:29;16.30;84.80
52113;DHT22;38109;49.488;31.988;2022-09-29T08:26:04;16.30;84.60
52113;DHT22;38109;49.488;31.988;2022-09-29T08:28:32;16.30;84.30
52113;DHT22;38109;49.488;31.988;2022-09-29T08:31:18;16.40;84.30
52113;DHT22;38109;49.488;31.988;2022-09-29T08:33:46;16.40;84.10
52113;DHT22;38109;49.488;31.988;2022-09-29T08:36:14;16.40;84.10
52113;DHT22;38109;49.488;31.988;2022-09-29T08:38:48;16.50;84.00
52113;DHT22;38109;49.488;31.988;2022-09-29T08:44:06;16.50;83.30
52113;DHT22;38109;49.488;31.988;2022-09-29T08:46:43;16.50;82.70
52113;DHT22;38109;49.488;31.988;2022-09-29T08:49:35;16.50;82.80
52113;DHT22;38109;49.488;31.988;2022-09-29T08:52:07;16.50;82.30
52113;DHT22;38109;49.488;31.988;2022-09-29T08:54:38;16.50;82.10
52113;DHT22;38109;49.488;31.988;2022-09-29T08:57:05;16.50;81.90
52113;DHT22;38109;49.488;31.988;2022-09-29T08:59:31;16.50;82.00
52113;DHT22;38109;49.488;31.988;2022-09-29T09:02:12;16.50;82.00
52113;DHT22;38109;49.488;31.988;2022-09-29T09:21:32;16.60;82.00
52113;DHT22;38109;49.488;31.988;2022-09-29T09:26:43;16.70;82.10
52113;DHT22;38109;49.488;31.988;2022-09-29T09:32:24;16.70;81.90
52113;DHT22;38109;49.488;31.988;2022-09-29T09:34:59;16.80;82.00
52113;DHT22;38109;49.488;31.988;2022-09-29T09:37:36;16.80;82.00
52113;DHT22;38109;49.488;31.988;2022-09-29T09:40:16;16.90;82.00
52113;DHT22;38109;49.488;31.988;2022-09-29T09:42:49;16.90;81.90
52113;DHT22;38109;49.488;31.988;2022-09-29T09:45:29;16.90;81.70
52113;DHT22;38109;49.488;31.988;2022-09-29T09:48:12;16.90;81.30
52113;DHT22;38109;49.488;31.988;2022-09-29T09:50:41;16.90;81.20
52113;DHT22;38109;49.488;31.988;2022-09-29T09:53:24;16.90;81.30
52113;DHT22;38109;49.488;31.988;2022-09-29T09:56:11;16.90;81.10
52113;DHT22;38109;49.488;31.988;2022-09-29T10:01:18;16.80;81.30
52113;DHT22;38109;49.488;31.988;2022-09-29T10:03:44;16.90;81.30
52113;DHT22;38109;49.488;31.988;2022-09-29T10:06:10;16.80;81.30
52113;DHT22;38109;49.488;31.988;2022-09-29T10:08:38;16.90;81.20
52113;DHT22;38109;49.488;31.988;2022-09-29T10:11:23;16.90;81.00
52113;DHT22;38109;49.488;31.988;2022-09-29T10:16:44;16.90;80.80
52113;DHT22;38109;49.488;31.988;2022-09-29T10:19:10;16.80;80.70
52113;DHT22;38109;49.488;31.988;2022-09-29T10:24:09;16.70;81.30
52113;DHT22;38109;49.488;31.988;2022-09-29T10:26:46;16.70;80.90
52113;DHT22;38109;49.488;31.988;2022-09-29T10:29:41;16.80;81.10
52113;DHT22;38109;49.488;31.988;2022-09-29T10:34:35;16.80;80.90
52113;DHT22;38109;49.488;31.988;2022-09-29T10:37:04;16.80;80.90
52113;DHT22;38109;49.488;31.988;2022-09-29T10:39:39;16.80;81.00
52113;DHT22;38109;49.488;31.988;2022-09-29T10:45:23;16.90;81.00
52113;DHT22;38109;49.488;31.988;2022-09-29T10:50:29;16.90;81.30
52113;DHT22;38109;49.488;31.988;2022-09-29T10:52:57;16.80;81.40
52113;DHT22;38109;49.488;31.988;2022-09-29T10:55:28;16.90;81.60
52113;DHT22;38109;49.488;31.988;2022-09-29T10:57:57;16.80;81.50
52113;DHT22;38109;49.488;31.988;2022-09-29T11:00:35;16.80;81.60
52113;DHT22;38109;49.488;31.988;2022-09-29T11:03:22;16.80;81.60
52113;DHT22;38109;49.488;31.988;2022-09-29T11:05:57;16.90;81.70
52113;DHT22;38109;49.488;31.988;2022-09-29T11:08:23;16.90;81.90
52113;DHT22;38109;49.488;31.988;2022-09-29T11:11:23;16.90;82.00
52113;DHT22;38109;49.488;31.988;2022-09-29T11:13:50;16.90;82.20
52113;DHT22;38109;49.488;31.988;2022-09-29T11:16:28;16.90;82.20
52113;DHT22;38109;49.488;31.988;2022-09-29T11:18:57;17.00;82.20
52113;DHT22;38109;49.488;31.988;2022-09-29T11:30:08;17.00;81.90
52113;DHT22;38109;49.488;31.988;2022-09-29T11:32:42;17.00;82.00
52113;DHT22;38109;49.488;31.988;2022-09-29T11:43:57;17.10;82.20
52113;DHT22;38109;49.488;31.988;2022-09-29T11:49:14;17.20;82.40
52113;DHT22;38109;49.488;31.988;2022-09-29T11:57:44;17.20;82.40
52113;DHT22;38109;49.488;31.988;2022-09-29T12:00:14;17.30;82.50
52113;DHT22;38109;49.488;31.988;2022-09-29T12:08:50;17.20;82.10
52113;DHT22;38109;49.488;31.988;2022-09-29T12:17:17;17.20;82.60
52113;DHT22;38109;49.488;31.988;2022-09-29T12:20:00;17.30;82.90
52113;DHT22;38109;49.488;31.988;2022-09-29T12:22:27;17.30;83.10
52113;DHT22;38109;49.488;31.988;2022-09-29T12:24:54;17.30;83.20
52113;DHT22;38109;49.488;31.988;2022-09-29T12:27:33;17.40;83.10
52113;DHT22;38109;49.488;31.988;2022-09-29T12:30:25;17.40;83.10
52113;DHT22;38109;49.488;31.988;2022-09-29T12:35:38;17.60;83.50
52113;DHT22;38109;49.488;31.988;2022-09-29T12:43:42;17.80;83.30
52113;DHT22;38109;49.488;31.988;2022-09-29T12:46:32;17.90;83.40
52113;DHT22;38109;49.488;31.988;2022-09-29T12:49:07;17.90;83.40
52113;DHT22;38109;49.488;31.988;2022-09-29T12:51:43;18.00;83.50
52113;DHT22;38109;49.488;31.988;2022-09-29T12:54:34;18.10;83.20
52113;DHT22;38109;49.488;31.988;2022-09-29T12:57:24;18.20;83.00
52113;DHT22;38109;49.488;31.988;2022-09-29T13:00:13;18.20;83.10
52113;DHT22;38109;49.488;31.988;2022-09-29T13:02:52;18.30;82.90
52113;DHT22;38109;49.488;31.988;2022-09-29T13:32:49;18.50;81.90
52113;DHT22;38109;49.488;31.988;2022-09-29T13:35:21;18.50;81.80
52113;DHT22;38109;49.488;31.988;2022-09-29T13:38:03;18.50;81.80
52113;DHT22;38109;49.488;31.988;2022-09-29T13:40:31;18.50;81.80
52113;DHT22;38109;49.488;31.988;2022-09-29T13:43:01;18.50;81.90
52113;DHT22;38109;49.488;31.988;2022-09-29T13:50:56;18.50;81.70
52113;DHT22;38109;49.488;31.988;2022-09-29T13:56:08;18.40;81.60
52113;DHT22;38109;49.488;31.988;2022-09-29T13:58:57;18.30;81.60
52113;DHT22;38109;49.488;31.988;2022-09-29T14:01:36;18.30;81.50
52113;DHT22;38109;49.488;31.988;2022-09-29T14:13:06;18.10;81.80
52113;DHT22;38109;49.488;31.988;2022-09-29T14:15:39;18.00;81.90
52113;DHT22;38109;49.488;31.988;2022-09-29T14:21:02;18.00;82.10
52113;DHT22;38109;49.488;31.988;2022-09-29T14:23:47;17.90;82.30
52113;DHT22;38109;49.488;31.988;2022-09-29T14:29:31;17.90;82.40
52113;DHT22;38109;49.488;31.988;2022-09-29T14:32:00;17.90;82.50
52113;DHT22;38109;49.488;31.988;2022-09-29T14:34:30;17.80;82.60
52113;DHT22;38109;49.488;31.988;2022-09-29T14:36:58;17.80;82.80
52113;DHT22;38109;49.488;31.988;2022-09-29T14:39:25;17.80;82.90
52113;DHT22;38109;49.488;31.988;2022-09-29T14:41:51;17.70;82.90
52113;DHT22;38109;49.488;31.988;2022-09-29T14:47:07;17.70;83.20
52113;DHT22;38109;49.488;31.988;2022-09-29T14:53:01;17.60;83.20
52113;DHT22;38109;49.488;31.988;2022-09-29T15:03:51;17.50;83.70
52113;DHT22;38109;49.488;31.988;2022-09-29T15:06:19;17.50;83.80
52113;DHT22;38109;49.488;31.988;2022-09-29T15:08:59;17.50;84.00
52113;DHT22;38109;49.488;31.988;2022-09-29T15:11:27;17.50;84.10
52113;DHT22;38109;49.488;31.988;2022-09-29T15:13:54;17.50;84.20
52113;DHT22;38109;49.488;31.988;2022-09-29T15:25:01;17.40;84.50
52113;DHT22;38109;49.488;31.988;2022-09-29T15:27:33;17.30;84.60
52113;DHT22;38109;49.488;31.988;2022-09-29T15:30:00;17.30;84.80
52113;DHT22;38109;49.488;31.988;2022-09-29T15:32:28;17.30;84.80
52113;DHT22;38109;49.488;31.988;2022-09-29T15:38:37;17.30;84.90
52113;DHT22;38109;49.488;31.988;2022-09-29T15:46:50;17.20;85.00
52113;DHT22;38109;49.488;31.988;2022-09-29T15:49:21;17.20;85.10
52113;DHT22;38109;49.488;31.988;2022-09-29T15:55:21;17.20;85.30
52113;DHT22;38109;49.488;31.988;2022-09-29T16:01:12;17.10;85.40
52113;DHT22;38109;49.488;31.988;2022-09-29T16:04:02;17.10;85.50
52113;DHT22;38109;49.488;31.988;2022-09-29T16:06:34;17.10;85.50
52113;DHT22;38109;49.488;31.988;2022-09-29T16:09:04;17.10;85.60
52113;DHT22;38109;49.488;31.988;2022-09-29T16:11:37;17.00;85.60
52113;DHT22;38109;49.488;31.988;2022-09-29T16:14:18;17.00;85.70
52113;DHT22;38109;49.488;31.988;2022-09-29T16:16:47;17.10;85.80
52113;DHT22;38109;49.488;31.988;2022-09-29T16:19:23;17.10;85.70
52113;DHT22;38109;49.488;31.988;2022-09-29T16:21:58;17.10;85.70
52113;DHT22;38109;49.488;31.988;2022-09-29T16:24:33;17.10;85.70
52113;DHT22;38109;49.488;31.988;2022-09-29T16:27:01;17.00;86.20
52113;DHT22;38109;49.488;31.988;2022-09-29T16:29:35;17.10;85.70
52113;DHT22;38109;49.488;31.988;2022-09-29T16:32:36;17.00;85.70
52113;DHT22;38109;49.488;31.988;2022-09-29T16:35:37;17.00;85.60
52113;DHT22;38109;49.488;31.988;2022-09-29T16:40:58;17.10;85.80
52113;DHT22;38109;49.488;31.988;2022-09-29T16:43:29;17.00;85.80
52113;DHT22;38109;49.488;31.988;2022-09-29T16:45:58;17.00;85.90
52113;DHT22;38109;49.488;31.988;2022-09-29T16:48:25;17.00;86.00
52113;DHT22;38109;49.488;31.988;2022-09-29T16:50:58;17.00;86.20
52113;DHT22;38109;49.488;31.988;2022-09-29T16:53:32;17.00;86.30
52113;DHT22;38109;49.488;31.988;2022-09-29T16:56:02;17.00;86.30
52113;DHT22;38109;49.488;31.988;2022-09-29T16:58:29;17.10;86.40
52113;DHT22;38109;49.488;31.988;2022-09-29T17:00:56;17.10;86.40
52113;DHT22;38109;49.488;31.988;2022-09-29T17:03:22;17.10;86.50
52113;DHT22;38109;49.488;31.988;2022-09-29T17:05:48;17.10;86.50
52113;DHT22;38109;49.488;31.988;2022-09-29T17:10:41;17.10;86.60
52113;DHT22;38109;49.488;31.988;2022-09-29T17:13:12;17.10;86.80
52113;DHT22;38109;49.488;31.988;2022-09-29T17:15:40;17.10;86.90
52113;DHT22;38109;49.488;31.988;2022-09-29T17:18:11;17.20;87.00
52113;DHT22;38109;49.488;31.988;2022-09-29T17:20:37;17.20;87.10
52113;DHT22;38109;49.488;31.988;2022-09-29T17:23:03;17.20;87.20
52113;DHT22;38109;49.488;31.988;2022-09-29T17:25:31;17.20;87.20
52113;DHT22;38109;49.488;31.988;2022-09-29T17:27:57;17.20;87.30
52113;DHT22;38109;49.488;31.988;2022-09-29T17:30:39;17.20;87.40
52113;DHT22;38109;49.488;31.988;2022-09-29T17:33:05;17.30;87.50
52113;DHT22;38109;49.488;31.988;2022-09-29T17:35:43;17.30;87.80
52113;DHT22;38109;49.488;31.988;2022-09-29T17:38:11;17.30;87.90
52113;DHT22;38109;49.488;31.988;2022-09-29T17:40:56;17.30;88.00
52113;DHT22;38109;49.488;31.988;2022-09-29T17:43:25;17.30;88.10
52113;DHT22;38109;49.488;31.988;2022-09-29T17:45:53;17.30;88.40
52113;DHT22;38109;49.488;31.988;2022-09-29T17:48:20;17.30;88.50
52113;DHT22;38109;49.488;31.988;2022-09-29T17:50:48;17.40;88.60
52113;DHT22;38109;49.488;31.988;2022-09-29T17:53:15;17.40;88.70
52113;DHT22;38109;49.488;31.988;2022-09-29T17:55:43;17.40;88.70
52113;DHT22;38109;49.488;31.988;2022-09-29T17:58:11;17.40;88.90
52113;DHT22;38109;49.488;31.988;2022-09-29T18:00:38;17.40;88.90
52113;DHT22;38109;49.488;31.988;2022-09-29T18:03:08;17.50;89.00
52113;DHT22;38109;49.488;31.988;2022-09-29T18:05:37;17.50;89.00
52113;DHT22;38109;49.488;31.988;2022-09-29T18:08:04;17.50;89.00
52113;DHT22;38109;49.488;31.988;2022-09-29T18:13:10;17.50;89.10
52113;DHT22;38109;49.488;31.988;2022-09-29T18:15:36;17.50;89.10
52113;DHT22;38109;49.488;31.988;2022-09-29T18:18:04;17.50;89.20
52113;DHT22;38109;49.488;31.988;2022-09-29T18:20:32;17.50;89.20
52113;DHT22;38109;49.488;31.988;2022-09-29T18:22:58;17.50;89.10
52113;DHT22;38109;49.488;31.988;2022-09-29T18:25:26;17.50;89.20
52113;DHT22;38109;49.488;31.988;2022-09-29T18:27:52;17.60;89.30
52113;DHT22;38109;49.488;31.988;2022-09-29T18:30:22;17.50;89.30
52113;DHT22;38109;49.488;31.988;2022-09-29T18:32:50;17.60;89.40
52113;DHT22;38109;49.488;31.988;2022-09-29T18:35:19;17.60;89.40
52113;DHT22;38109;49.488;31.988;2022-09-29T18:37:45;17.60;89.50
52113;DHT22;38109;49.488;31.988;2022-09-29T18:40:11;17.60;89.50
52113;DHT22;38109;49.488;31.988;2022-09-29T18:42:46;17.60;89.60
52113;DHT22;38109;49.488;31.988;2022-09-29T18:45:15;17.60;89.60
52113;DHT22;38109;49.488;31.988;2022-09-29T18:47:51;17.60;89.60
52113;DHT22;38109;49.488;31.988;2022-09-29T18:50:23;17.60;89.70
52113;DHT22;38109;49.488;31.988;2022-09-29T18:52:50;17.60;89.90
52113;DHT22;38109;49.488;31.988;2022-09-29T18:55:18;17.60;90.00
52113;DHT22;38109;49.488;31.988;2022-09-29T18:57:45;17.60;90.00
52113;DHT22;38109;49.488;31.988;2022-09-29T19:00:14;17.70;90.00
52113;DHT22;38109;49.488;31.988;2022-09-29T19:02:41;17.70;90.10
52113;DHT22;38109;49.488;31.988;2022-09-29T19:05:09;17.70;90.10
52113;DHT22;38109;49.488;31.988;2022-09-29T19:07:35;17.70;90.20
52113;DHT22;38109;49.488;31.988;2022-09-29T19:10:01;17.70;90.20
52113;DHT22;38109;49.488;31.988;2022-09-29T19:12:27;17.70;90.20
52113;DHT22;38109;49.488;31.988;2022-09-29T19:14:55;17.70;90.20
52113;DHT22;38109;49.488;31.988;2022-09-29T19:17:25;17.70;90.30
52113;DHT22;38109;49.488;31.988;2022-09-29T19:19:51;17.70;90.30
52113;DHT22;38109;49.488;31.988;2022-09-29T19:22:17;17.70;90.40
52113;DHT22;38109;49.488;31.988;2022-09-29T19:24:43;17.70;90.50
52113;DHT22;38109;49.488;31.988;2022-09-29T19:27:09;17.60;90.50
52113;DHT22;38109;49.488;31.988;2022-09-29T19:29:35;17.70;90.50
52113;DHT22;38109;49.488;31.988;2022-09-29T19:32:01;17.60;90.60
52113;DHT22;38109;49.488;31.988;2022-09-29T19:34:26;17.60;90.70
52113;DHT22;38109;49.488;31.988;2022-09-29T19:36:55;17.60;90.70
52113;DHT22;38109;49.488;31.988;2022-09-29T19:39:20;17.60;90.70
52113;DHT22;38109;49.488;31.988;2022-09-29T19:41:47;17.60;90.70
52113;DHT22;38109;49.488;31.988;2022-09-29T19:44:13;17.60;90.80
52113;DHT22;38109;49.488;31.988;2022-09-29T19:46:38;17.60;90.80
52113;DHT22;38109;49.488;31.988;2022-09-29T19:49:04;17.60;90.80
52113;DHT22;38109;49.488;31.988;2022-09-29T19:51:30;17.60;90.90
52113;DHT22;38109;49.488;31.988;2022-09-29T19:54:15;17.60;90.90
52113;DHT22;38109;49.488;31.988;2022-09-29T19:56:57;17.60;90.90
52113;DHT22;38109;49.488;31.988;2022-09-29T19:59:29;17.60;90.90
52113;DHT22;38109;49.488;31.988;2022-09-29T20:01:57;17.50;91.00
52113;DHT22;38109;49.488;31.988;2022-09-29T20:04:26;17.50;91.00
52113;DHT22;38109;49.488;31.988;2022-09-29T20:06:52;17.50;91.10
52113;DHT22;38109;49.488;31.988;2022-09-29T20:09:19;17.50;91.30
52113;DHT22;38109;49.488;31.988;2022-09-29T20:11:46;17.50;91.10
52113;DHT22;38109;49.488;31.988;2022-09-29T20:14:16;17.50;91.10
52113;DHT22;38109;49.488;31.988;2022-09-29T20:16:43;17.50;91.20
52113;DHT22;38109;49.488;31.988;2022-09-29T20:19:12;17.50;91.20
52113;DHT22;38109;49.488;31.988;2022-09-29T20:21:41;17.50;91.20
52113;DHT22;38109;49.488;31.988;2022-09-29T20:24:08;17.50;91.30
52113;DHT22;38109;49.488;31.988;2022-09-29T20:26:34;17.40;91.30
52113;DHT22;38109;49.488;31.988;2022-09-29T20:29:00;17.40;91.40
52113;DHT22;38109;49.488;31.988;2022-09-29T20:31:27;17.40;91.40
52113;DHT22;38109;49.488;31.988;2022-09-29T20:33:54;17.40;91.50
52113;DHT22;38109;49.488;31.988;2022-09-29T20:36:20;17.40;91.50
52113;DHT22;38109;49.488;31.988;2022-09-29T20:38:46;17.40;91.50
52113;DHT22;38109;49.488;31.988;2022-09-29T20:41:13;17.40;91.60
52113;DHT22;38109;49.488;31.988;2022-09-29T20:43:40;17.40;91.60
52113;DHT22;38109;49.488;31.988;2022-09-29T20:46:10;17.40;91.70
52113;DHT22;38109;49.488;31.988;2022-09-29T20:48:37;17.40;91.70
52113;DHT22;38109;49.488;31.988;2022-09-29T20:51:05;17.40;91.80
